Time;durP1;ratioP1;P1;durP2;ratioP2;P2;SDS_P1;SDS_P2;PMS_P1;PMS_P2;Temp;Humidity;BMP_temperature;BMP_pressure;BME280_temperature;BME280_humidity;BME280_pressure;Samples;Min_cycle;Max_cycle;Signal;HPM_P1;HPM_P2
2022/03/08 00:01:28;;;;;;;17.53;10.43;;;;;;;2.36;nan;-23881.88;4991770;28;20188;-72
2022/03/08 00:03:54;;;;;;;16.10;9.93;;;;;;;2.29;nan;-23879.75;4992616;28;20208;-71
2022/03/08 00:06:20;;;;;;;15.47;9.83;;;;;;;2.60;nan;-23888.59;4992573;28;20193;-71
2022/03/08 00:08:46;;;;;;;16.10;10.67;;;;;;;2.92;nan;-23897.56;4992452;28;20195;-72
2022/03/08 00:11:11;;;;;;;14.97;9.93;;;;;;;2.52;nan;-23886.44;4992095;28;20180;-73
2022/03/08 00:13:37;;;;;;;14.60;9.87;;;;;;;2.83;nan;-23895.00;4992636;28;20298;-70
2022/03/08 00:16:03;;;;;;;15.57;10.40;;;;;;;2.29;nan;-23879.88;4991023;28;20246;-71
2022/03/08 00:18:28;;;;;;;15.33;9.80;;;;;;;2.37;nan;-23882.16;4992527;28;20177;-71
2022/03/08 00:20:54;;;;;;;16.07;10.07;;;;;;;2.59;nan;-23888.31;4991050;28;20173;-71
2022/03/08 00:23:19;;;;;;;17.70;10.93;;;;;;;2.12;nan;-23875.03;4991035;28;20200;-69
2022/03/08 00:25:44;;;;;;;18.60;11.03;;;;;;;2.52;nan;-23886.31;4991707;28;20212;-70
2022/03/08 00:28:10;;;;;;;18.93;11.40;;;;;;;2.53;nan;-23886.59;4992692;28;20704;-71
2022/03/08 00:30:35;;;;;;;17.90;10.93;;;;;;;2.77;nan;-23893.31;4992469;28;20191;-70
2022/03/08 00:33:02;;;;;;;19.33;11.93;;;;;;;2.80;nan;-23894.16;4992276;28;20656;-71
2022/03/08 00:35:28;;;;;;;17.50;11.30;;;;;;;2.78;nan;-23893.59;4992207;28;20237;-71
2022/03/08 00:37:55;;;;;;;18.40;10.87;;;;;;;2.80;nan;-23894.16;4992273;28;20177;-70
2022/03/08 00:40:23;;;;;;;17.27;11.43;;;;;;;2.76;nan;-23893.00;4990963;28;20262;-70
2022/03/08 00:42:50;;;;;;;18.33;11.37;;;;;;;2.80;nan;-23894.16;4990806;28;20295;-71
2022/03/08 00:45:16;;;;;;;17.97;11.57;;;;;;;2.52;nan;-23886.44;4992071;28;20334;-72
2022/03/08 00:47:42;;;;;;;20.00;12.00;;;;;;;2.42;nan;-23883.59;4992261;28;20213;-71
2022/03/08 00:50:20;;;;;;;17.40;10.73;;;;;;;2.39;nan;-23882.59;4992317;28;20253;-72
2022/03/08 00:52:46;;;;;;;17.47;11.33;;;;;;;2.82;nan;-23894.72;4990592;28;20640;-71
2022/03/08 00:55:13;;;;;;;17.83;10.67;;;;;;;2.88;nan;-23896.44;4992600;28;20178;-72
2022/03/08 00:57:39;;;;;;;19.70;12.30;;;;;;;2.78;nan;-23893.59;4995845;28;20632;-72
2022/03/08 01:00:06;;;;;;;17.23;11.33;;;;;;;2.62;nan;-23889.31;4995533;28;20184;-70
2022/03/08 01:02:32;;;;;;;18.07;11.27;;;;;;;2.50;nan;-23885.72;4994224;28;20624;-71
2022/03/08 01:04:57;;;;;;;16.93;10.53;;;;;;;2.22;nan;-23877.88;4995202;28;20193;-71
2022/03/08 01:07:23;;;;;;;17.87;11.50;;;;;;;2.59;nan;-23888.31;4994947;28;20183;-70
2022/03/08 01:09:49;;;;;;;16.80;10.80;;;;;;;2.59;nan;-23888.44;4995455;28;20244;-70
2022/03/08 01:12:14;;;;;;;18.67;11.97;;;;;;;2.15;nan;-23876.03;4995412;28;20262;-70
2022/03/08 01:14:39;;;;;;;17.13;11.27;;;;;;;2.63;nan;-23889.59;4995314;28;20187;-72
2022/03/08 01:17:05;;;;;;;17.87;11.97;;;;;;;2.61;nan;-23888.88;4994357;28;20191;-71
2022/03/08 01:19:30;;;;;;;16.50;11.23;;;;;;;2.61;nan;-23889.03;4994959;28;20189;-69
2022/03/08 01:21:56;;;;;;;18.27;12.00;;;;;;;2.72;nan;-23892.03;4995208;28;20180;-72
2022/03/08 01:24:21;;;;;;;17.23;11.57;;;;;;;2.30;nan;-23880.03;4994967;28;20741;-72
2022/03/08 01:26:47;;;;;;;20.37;12.13;;;;;;;2.51;nan;-23886.03;4995078;28;20180;-71
2022/03/08 01:29:12;;;;;;;18.47;12.40;;;;;;;2.58;nan;-23888.16;4995303;28;20200;-72
2022/03/08 01:31:37;;;;;;;20.23;13.67;;;;;;;2.67;nan;-23890.72;4994758;28;20610;-71
2022/03/08 01:34:03;;;;;;;20.20;13.63;;;;;;;2.54;nan;-23886.88;4993446;28;20188;-70
2022/03/08 01:36:29;;;;;;;20.30;13.47;;;;;;;2.85;nan;-23895.59;4995117;28;20171;-71
2022/03/08 01:38:54;;;;;;;21.83;14.23;;;;;;;2.79;nan;-23893.88;4995674;28;20614;-71
2022/03/08 01:41:20;;;;;;;21.83;14.30;;;;;;;2.43;nan;-23883.88;4995380;28;20216;-70
2022/03/08 01:43:46;;;;;;;22.10;14.53;;;;;;;2.82;nan;-23894.72;4995221;28;20576;-70
2022/03/08 01:46:13;;;;;;;19.77;13.23;;;;;;;2.72;nan;-23892.03;4995034;28;20231;-71
2022/03/08 01:48:38;;;;;;;18.97;12.90;;;;;;;2.95;nan;-23898.44;4994749;28;20169;-71
2022/03/08 01:51:04;;;;;;;20.77;13.67;;;;;;;2.54;nan;-23886.88;4994882;28;20259;-70
2022/03/08 01:53:30;;;;;;;18.90;12.60;;;;;;;2.61;nan;-23889.03;4993029;28;20188;-70
2022/03/08 01:55:55;;;;;;;21.57;13.17;;;;;;;2.94;nan;-23898.16;4993625;28;20587;-70
2022/03/08 01:58:21;;;;;;;19.97;13.30;;;;;;;2.73;nan;-23892.16;4994781;28;20575;-71
2022/03/08 02:00:46;;;;;;;19.57;12.10;;;;;;;2.87;nan;-23896.28;4995128;28;20596;-70
2022/03/08 02:03:12;;;;;;;21.27;12.73;;;;;;;3.01;nan;-23900.16;4994685;28;20636;-71
2022/03/08 02:05:37;;;;;;;19.93;12.97;;;;;;;3.02;nan;-23900.44;4994576;28;20551;-71
2022/03/08 02:08:03;;;;;;;20.40;13.40;;;;;;;2.92;nan;-23897.56;4993444;28;20195;-71
2022/03/08 02:10:28;;;;;;;21.70;12.90;;;;;;;2.95;nan;-23898.44;4994470;28;20168;-72
2022/03/08 02:12:54;;;;;;;19.10;12.43;;;;;;;2.94;nan;-23898.28;4994430;28;20177;-71
2022/03/08 02:15:25;;;;;;;20.33;12.60;;;;;;;2.48;nan;-23885.31;4994454;28;20263;-70
2022/03/08 02:17:51;;;;;;;20.20;13.20;;;;;;;3.03;nan;-23900.72;4993172;28;20622;-72
2022/03/08 02:20:18;;;;;;;23.07;13.87;;;;;;;2.90;nan;-23897.00;4994149;28;20180;-70
2022/03/08 02:22:46;;;;;;;23.50;13.70;;;;;;;2.96;nan;-23898.88;4994309;28;20196;-71
2022/03/08 02:25:13;;;;;;;21.97;13.57;;;;;;;2.78;nan;-23893.59;4993976;28;20200;-70
2022/03/08 02:27:52;;;;;;;23.73;13.70;;;;;;;2.98;nan;-23899.44;4994248;28;20180;-71
2022/03/08 02:30:20;;;;;;;21.50;13.40;;;;;;;2.59;nan;-23888.44;4992056;28;20615;-70
2022/03/08 02:32:46;;;;;;;26.30;15.30;;;;;;;2.56;nan;-23887.44;4993761;28;20570;-70
2022/03/08 02:35:15;;;;;;;24.77;14.60;;;;;;;2.69;nan;-23891.16;4993982;28;20188;-70
2022/03/08 02:37:42;;;;;;;26.07;16.20;;;;;;;2.53;nan;-23886.75;4993921;28;20195;-71
2022/03/08 02:40:10;;;;;;;24.73;15.50;;;;;;;2.64;nan;-23889.72;4993847;28;20200;-71
2022/03/08 02:42:36;;;;;;;27.53;15.53;;;;;;;2.39;nan;-23882.75;4992191;28;20228;-71
2022/03/08 02:45:04;;;;;;;25.67;16.00;;;;;;;2.94;nan;-23898.16;4993637;28;20279;-71
2022/03/08 02:47:29;;;;;;;29.77;16.83;;;;;;;2.71;nan;-23891.72;4993165;28;20239;-71
2022/03/08 02:49:54;;;;;;;28.73;16.63;;;;;;;2.53;nan;-23886.59;4993829;28;20185;-71
2022/03/08 02:52:20;;;;;;;31.33;18.60;;;;;;;2.37;nan;-23882.03;4993702;28;20255;-71
2022/03/08 02:54:45;;;;;;;32.30;18.33;;;;;;;2.90;nan;-23897.00;4993867;28;20647;-71
2022/03/08 02:57:11;;;;;;;29.47;18.13;;;;;;;2.49;nan;-23885.59;4993673;28;20230;-71
2022/03/08 02:59:36;;;;;;;31.50;18.20;;;;;;;2.44;nan;-23884.03;4993443;28;20173;-70
2022/03/08 03:02:03;;;;;;;34.40;19.47;;;;;;;3.03;nan;-23900.72;4993425;28;20211;-72
2022/03/08 03:04:28;;;;;;;32.87;19.20;;;;;;;3.12;nan;-23903.28;4992227;28;20208;-72
2022/03/08 03:06:54;;;;;;;32.23;19.03;;;;;;;2.73;nan;-23892.16;4992833;28;20671;-70
2022/03/08 03:09:19;;;;;;;32.00;18.87;;;;;;;2.69;nan;-23891.16;4993376;28;20185;-71
2022/03/08 03:11:45;;;;;;;30.77;17.97;;;;;;;3.12;nan;-23903.28;4993203;28;20199;-70
2022/03/08 03:14:10;;;;;;;37.73;18.63;;;;;;;3.10;nan;-23902.72;4993392;28;20264;-73
2022/03/08 03:16:36;;;;;;;32.37;18.93;;;;;;;3.11;nan;-23903.00;4993159;28;20176;-72
2022/03/08 03:19:02;;;;;;;30.80;18.77;;;;;;;2.67;nan;-23890.72;4993526;28;20674;-72
2022/03/08 03:21:28;;;;;;;30.97;18.93;;;;;;;2.97;nan;-23899.16;4993281;28;20185;-71
2022/03/08 03:23:53;;;;;;;30.17;17.67;;;;;;;3.07;nan;-23901.84;4992946;28;20596;-71
2022/03/08 03:26:19;;;;;;;26.33;15.53;;;;;;;2.60;nan;-23888.59;4991813;28;20188;-71
2022/03/08 03:28:44;;;;;;;27.60;16.47;;;;;;;2.95;nan;-23898.44;4985412;28;20184;-71
2022/03/08 03:31:10;;;;;;;27.07;15.70;;;;;;;3.04;nan;-23901.16;4866781;28;20197;-70
2022/03/08 03:33:35;;;;;;;27.87;15.63;;;;;;;3.17;nan;-23904.72;4993074;28;20165;-71
2022/03/08 03:36:01;;;;;;;26.33;15.07;;;;;;;3.03;nan;-23900.88;4993128;28;20183;-70
2022/03/08 03:38:26;;;;;;;25.30;15.37;;;;;;;2.73;nan;-23892.16;4993074;28;20651;-73
2022/03/08 03:40:52;;;;;;;25.27;14.87;;;;;;;3.16;nan;-23904.44;4992351;28;20252;-71
2022/03/08 03:43:17;;;;;;;28.73;16.03;;;;;;;2.70;nan;-23891.31;4992553;28;20196;-71
2022/03/08 03:45:42;;;;;;;30.60;16.47;;;;;;;3.06;nan;-23901.72;4992358;28;20212;-70
2022/03/08 03:48:08;;;;;;;29.83;16.03;;;;;;;3.10;nan;-23902.72;4993389;28;20612;-72
2022/03/08 03:50:33;;;;;;;33.00;17.27;;;;;;;2.79;nan;-23893.88;4992901;28;20176;-72
2022/03/08 03:52:59;;;;;;;30.07;18.13;;;;;;;3.21;nan;-23905.72;4992813;28;20542;-71
2022/03/08 03:55:24;;;;;;;31.40;17.40;;;;;;;2.78;nan;-23893.72;4992764;28;20176;-70
2022/03/08 03:57:50;;;;;;;31.13;17.27;;;;;;;2.72;nan;-23892.03;4992636;28;20242;-72
2022/03/08 04:00:16;;;;;;;29.97;17.67;;;;;;;3.10;nan;-23902.84;4993075;28;20160;-71
2022/03/08 04:02:43;;;;;;;33.20;18.33;;;;;;;2.80;nan;-23894.31;4992479;28;20184;-72
2022/03/08 04:05:09;;;;;;;29.40;16.80;;;;;;;2.76;nan;-23893.16;4992023;28;20200;-71
2022/03/08 04:07:35;;;;;;;33.43;18.80;;;;;;;3.18;nan;-23904.84;4992411;28;20215;-71
2022/03/08 04:10:02;;;;;;;30.97;18.20;;;;;;;2.50;nan;-23885.72;4992493;28;20255;-71
2022/03/08 04:12:28;;;;;;;32.80;18.23;;;;;;;2.88;nan;-23896.59;4992124;28;20179;-71
2022/03/08 04:14:54;;;;;;;32.60;18.20;;;;;;;3.20;nan;-23905.56;4992301;28;20193;-71
2022/03/08 04:17:19;;;;;;;29.80;17.70;;;;;;;3.47;nan;-23913.25;4992209;28;20580;-71
2022/03/08 04:19:45;;;;;;;31.23;17.90;;;;;;;2.98;nan;-23899.28;4991550;28;20552;-72
2022/03/08 04:22:10;;;;;;;31.33;17.83;;;;;;;3.45;nan;-23912.69;4988967;28;20325;-71
2022/03/08 04:24:36;;;;;;;34.67;18.23;;;;;;;3.02;nan;-23900.56;4991117;28;20197;-72
2022/03/08 04:27:01;;;;;;;33.40;18.93;;;;;;;3.34;nan;-23909.56;4991758;28;20558;-71
2022/03/08 04:29:27;;;;;;;33.10;17.40;;;;;;;3.27;nan;-23907.56;4993404;28;20622;-73
2022/03/08 04:31:53;;;;;;;32.40;19.00;;;;;;;2.80;nan;-23894.16;4998034;28;20176;-70
2022/03/08 04:34:18;;;;;;;35.50;19.33;;;;;;;3.05;nan;-23901.28;4990271;28;20629;-70
2022/03/08 04:36:43;;;;;;;32.73;18.43;;;;;;;2.65;nan;-23890.00;4986441;28;20548;-70
2022/03/08 04:39:09;;;;;;;34.00;19.00;;;;;;;3.28;nan;-23907.84;4991835;28;20698;-71
2022/03/08 04:41:34;;;;;;;34.07;18.50;;;;;;;2.41;nan;-23883.16;4990445;28;20279;-71
2022/03/08 04:44:00;;;;;;;33.60;19.57;;;;;;;3.39;nan;-23910.97;4991682;28;20546;-71
2022/03/08 04:46:25;;;;;;;34.03;19.33;;;;;;;2.57;nan;-23887.88;4991180;28;20272;-73
2022/03/08 04:48:51;;;;;;;35.43;18.97;;;;;;;3.36;nan;-23910.13;4991179;28;20260;-71
2022/03/08 04:51:16;;;;;;;33.03;18.73;;;;;;;2.90;nan;-23897.16;4990723;28;20185;-71
2022/03/08 04:53:46;;;;;;;33.53;19.00;;;;;;;3.29;nan;-23908.13;4991744;28;20180;-71
2022/03/08 04:59:48;;;;;;;33.07;19.03;;;;;;;3.10;nan;-23902.72;4990639;28;20204;-72
2022/03/08 05:02:14;;;;;;;32.40;18.77;;;;;;;2.71;nan;-23891.72;4990670;28;20184;-72
2022/03/08 05:04:40;;;;;;;33.30;18.50;;;;;;;2.82;nan;-23894.88;4989595;28;20496;-70
2022/03/08 05:07:05;;;;;;;32.77;17.60;;;;;;;3.03;nan;-23900.88;4991163;28;20177;-72
2022/03/08 05:09:31;;;;;;;26.00;16.40;;;;;;;3.09;nan;-23902.56;4990928;28;20196;-73
2022/03/08 05:12:01;;;;;;;27.67;15.83;;;;;;;3.09;nan;-23902.56;4991927;28;20194;-74
2022/03/08 05:14:26;;;;;;;27.13;15.30;;;;;;;3.03;nan;-23900.72;4991372;28;20285;-73
2022/03/08 05:16:54;;;;;;;28.97;16.57;;;;;;;3.14;nan;-23903.72;4990711;28;20263;-76
2022/03/08 05:19:21;;;;;;;26.97;16.57;;;;;;;3.02;nan;-23900.44;4991346;28;20189;-73
2022/03/08 05:21:47;;;;;;;27.33;15.70;;;;;;;3.20;nan;-23905.41;4993097;28;20272;-72
2022/03/08 05:24:13;;;;;;;27.20;16.43;;;;;;;2.97;nan;-23899.00;4990928;28;20220;-72
2022/03/08 05:26:39;;;;;;;28.63;16.93;;;;;;;3.27;nan;-23907.56;4992689;28;20196;-71
2022/03/08 05:29:06;;;;;;;30.63;17.47;;;;;;;3.11;nan;-23903.00;4996277;28;20261;-72
2022/03/08 05:31:31;;;;;;;31.53;17.60;;;;;;;3.28;nan;-23907.84;4997775;28;20648;-72
2022/03/08 05:33:57;;;;;;;28.57;16.97;;;;;;;2.86;nan;-23895.88;4997087;28;20189;-71
2022/03/08 05:36:22;;;;;;;30.87;17.27;;;;;;;3.13;nan;-23903.56;4997318;28;20181;-72
2022/03/08 05:38:48;;;;;;;30.30;18.03;;;;;;;3.18;nan;-23905.00;4996942;28;20566;-72
2022/03/08 05:41:13;;;;;;;31.23;18.30;;;;;;;2.85;nan;-23895.59;4995410;28;20224;-70
2022/03/08 05:43:39;;;;;;;32.63;18.87;;;;;;;3.05;nan;-23901.28;4995085;28;20594;-72
2022/03/08 05:46:04;;;;;;;32.70;18.43;;;;;;;3.23;nan;-23906.44;4994449;28;20196;-74
2022/03/08 05:48:29;;;;;;;30.43;18.03;;;;;;;3.24;nan;-23906.72;4994302;28;20165;-73
2022/03/08 05:50:55;;;;;;;31.33;17.93;;;;;;;2.93;nan;-23897.88;4994227;28;20683;-72
2022/03/08 05:53:20;;;;;;;31.07;18.03;;;;;;;3.19;nan;-23905.28;4993460;28;20188;-74
2022/03/08 05:55:46;;;;;;;33.37;18.47;;;;;;;3.09;nan;-23902.56;4993791;28;20177;-74
2022/03/08 05:58:11;;;;;;;30.80;18.23;;;;;;;3.27;nan;-23907.56;4992952;28;20672;-71
2022/03/08 06:00:37;;;;;;;34.00;18.20;;;;;;;2.73;nan;-23892.16;4994811;28;20195;-75
2022/03/08 06:03:03;;;;;;;29.90;16.83;;;;;;;3.10;nan;-23902.72;4994223;28;20184;-74
2022/03/08 06:05:28;;;;;;;28.70;17.00;;;;;;;3.19;nan;-23905.28;4992763;28;20267;-72
2022/03/08 06:07:53;;;;;;;29.33;16.97;;;;;;;3.13;nan;-23903.56;4993398;28;20224;-74
2022/03/08 06:10:19;;;;;;;29.93;17.27;;;;;;;3.27;nan;-23907.41;4993724;28;20207;-74
2022/03/08 06:12:44;;;;;;;31.33;16.63;;;;;;;2.82;nan;-23894.88;4993347;28;20608;-72
2022/03/08 06:15:11;;;;;;;29.23;16.60;;;;;;;2.93;nan;-23897.88;4993922;28;20260;-72
2022/03/08 06:17:36;;;;;;;29.20;17.03;;;;;;;3.06;nan;-23901.72;4993660;28;20205;-71
2022/03/08 06:20:02;;;;;;;29.53;16.97;;;;;;;3.53;nan;-23914.97;4991136;28;20664;-73
2022/03/08 06:22:28;;;;;;;26.77;15.53;;;;;;;3.62;nan;-23917.25;4992651;28;20684;-73
2022/03/08 06:24:53;;;;;;;28.67;15.87;;;;;;;3.58;nan;-23916.25;4993882;28;20208;-72
2022/03/08 06:27:19;;;;;;;26.60;16.27;;;;;;;3.35;nan;-23909.84;4993684;28;20597;-72
2022/03/08 06:29:45;;;;;;;23.93;15.37;;;;;;;3.48;nan;-23913.56;4993778;28;20189;-72
2022/03/08 06:32:11;;;;;;;31.27;17.63;;;;;;;3.30;nan;-23908.28;4993544;28;20283;-73
2022/03/08 06:34:36;;;;;;;34.53;19.03;;;;;;;2.86;nan;-23895.88;4992288;28;20667;-73
2022/03/08 06:37:02;;;;;;;33.03;16.93;;;;;;;2.86;nan;-23896.00;4992594;28;20272;-72
2022/03/08 06:39:27;;;;;;;27.20;17.17;;;;;;;3.08;nan;-23902.28;4991186;28;20189;-73
2022/03/08 06:41:53;;;;;;;27.83;16.90;;;;;;;2.94;nan;-23898.16;4991527;28;20237;-73
2022/03/08 06:44:18;;;;;;;29.20;18.00;;;;;;;3.27;nan;-23907.56;4993314;28;20200;-74
2022/03/08 06:46:46;;;;;;;28.20;17.37;;;;;;;3.32;nan;-23908.84;4993565;28;20247;-72
2022/03/08 06:49:12;;;;;;;28.73;17.53;;;;;;;3.34;nan;-23909.56;4993121;28;20156;-71
2022/03/08 06:51:38;;;;;;;31.17;18.10;;;;;;;3.05;nan;-23901.44;4993146;28;20494;-73
2022/03/08 06:54:08;;;;;;;31.10;17.43;;;;;;;3.38;nan;-23910.69;4992949;28;20188;-73
2022/03/08 06:56:34;;;;;;;34.03;18.70;;;;;;;3.26;nan;-23907.28;4993412;28;20623;-73
2022/03/08 06:59:01;;;;;;;33.40;19.10;;;;;;;3.00;nan;-23900.00;4993216;28;20196;-73
2022/03/08 07:01:26;;;;;;;33.77;20.17;;;;;;;3.11;nan;-23903.13;4993089;28;20248;-72
2022/03/08 07:03:51;;;;;;;33.57;19.33;;;;;;;2.97;nan;-23899.16;4992354;28;20200;-72
2022/03/08 07:06:17;;;;;;;33.17;19.47;;;;;;;3.00;nan;-23899.88;4991385;28;20185;-72
2022/03/08 07:08:42;;;;;;;32.67;19.00;;;;;;;3.18;nan;-23905.00;4992958;28;20227;-73
2022/03/08 07:11:09;;;;;;;33.83;19.20;;;;;;;3.42;nan;-23911.84;4992767;28;20256;-73
2022/03/08 07:13:34;;;;;;;33.60;19.50;;;;;;;3.14;nan;-23903.84;4993268;28;20689;-73
2022/03/08 07:16:00;;;;;;;35.70;20.03;;;;;;;3.29;nan;-23908.13;4992524;28;20177;-73
2022/03/08 07:18:25;;;;;;;35.57;19.47;;;;;;;3.47;nan;-23913.13;4991353;28;20279;-72
2022/03/08 07:20:50;;;;;;;33.57;19.03;;;;;;;3.01;nan;-23900.16;4992844;28;20165;-73
2022/03/08 07:23:16;;;;;;;34.37;20.00;;;;;;;3.07;nan;-23901.84;4992506;28;20245;-71
2022/03/08 07:25:42;;;;;;;34.57;19.47;;;;;;;3.61;nan;-23916.97;4992615;28;20215;-73
2022/03/08 07:28:07;;;;;;;38.07;20.93;;;;;;;3.51;nan;-23914.25;4992559;28;20180;-72
2022/03/08 07:30:33;;;;;;;36.17;20.00;;;;;;;3.13;nan;-23903.44;4992777;28;20465;-73
2022/03/08 07:32:58;;;;;;;34.67;19.40;;;;;;;3.60;nan;-23916.84;4992240;28;20218;-72
2022/03/08 07:35:24;;;;;;;32.77;18.33;;;;;;;3.48;nan;-23913.56;4992924;28;20172;-72
2022/03/08 07:37:50;;;;;;;33.43;20.03;;;;;;;3.23;nan;-23906.44;4992633;28;20610;-73
2022/03/08 07:40:16;;;;;;;30.47;18.20;;;;;;;3.32;nan;-23908.84;4992480;28;20181;-73
2022/03/08 07:42:41;;;;;;;29.63;17.73;;;;;;;3.38;nan;-23910.69;4992313;28;20533;-76
2022/03/08 07:45:07;;;;;;;32.00;19.07;;;;;;;3.49;nan;-23913.69;4992482;28;20409;-72
2022/03/08 07:47:32;;;;;;;29.90;18.40;;;;;;;3.14;nan;-23903.72;4991792;28;20212;-72
2022/03/08 07:49:58;;;;;;;30.30;18.17;;;;;;;2.91;nan;-23897.28;4992143;28;20185;-72
2022/03/08 07:52:23;;;;;;;33.17;19.30;;;;;;;2.90;nan;-23897.00;4991914;28;20181;-72
2022/03/08 07:54:48;;;;;;;33.27;20.03;;;;;;;3.45;nan;-23912.69;4990352;28;20323;-72
2022/03/08 07:57:14;;;;;;;34.30;20.23;;;;;;;3.42;nan;-23911.69;4991727;28;20181;-73
2022/03/08 07:59:40;;;;;;;38.60;19.80;;;;;;;3.09;nan;-23902.44;4991791;28;20531;-72
2022/03/08 08:02:06;;;;;;;32.53;17.87;;;;;;;3.64;nan;-23917.81;4991557;28;20176;-73
2022/03/08 08:04:31;;;;;;;30.27;17.63;;;;;;;3.64;nan;-23917.81;4991325;28;20656;-73
2022/03/08 08:06:57;;;;;;;34.97;17.93;;;;;;;3.43;nan;-23911.97;4990571;28;20636;-73
2022/03/08 08:09:22;;;;;;;30.10;16.83;;;;;;;3.54;nan;-23915.13;4991860;28;20169;-74
2022/03/08 08:11:49;;;;;;;29.97;16.33;;;;;;;4.36;nan;-23938.19;4991343;28;20173;-74
2022/03/08 08:14:15;;;;;;;27.60;15.93;;;;;;;4.21;nan;-23934.06;4991015;28;20388;-74
2022/03/08 08:16:41;;;;;;;25.80;14.87;;;;;;;4.29;nan;-23936.19;4674727;28;21497;-71
2022/03/08 08:19:07;;;;;;;23.97;15.17;;;;;;;4.57;nan;-23944.19;4991989;28;20185;-72
2022/03/08 08:21:33;;;;;;;22.17;14.00;;;;;;;4.70;nan;-23947.88;4992092;28;20168;-73
2022/03/08 08:23:58;;;;;;;22.27;13.83;;;;;;;3.99;nan;-23927.81;4991821;28;20177;-72
2022/03/08 08:26:24;;;;;;;23.30;14.13;;;;;;;5.02;nan;-23956.69;4992209;28;20169;-72
2022/03/08 08:28:49;;;;;;;22.50;13.40;;;;;;;4.92;nan;-23954.00;4991886;28;20247;-72
2022/03/08 08:31:15;;;;;;;25.03;14.30;;;;;;;5.50;nan;-23970.22;4991415;28;20192;-73
2022/03/08 08:33:40;;;;;;;23.63;13.57;;;;;;;5.39;nan;-23967.06;4990522;28;20215;-72
2022/03/08 08:36:06;;;;;;;21.90;13.70;;;;;;;5.52;nan;-23970.78;4991057;28;20180;-72
2022/03/08 08:38:32;;;;;;;21.50;13.97;;;;;;;5.82;nan;-23979.16;4991164;28;20173;-73
2022/03/08 08:40:58;;;;;;;23.73;13.07;;;;;;;5.88;nan;-23980.88;4991102;28;20217;-73
2022/03/08 08:43:23;;;;;;;21.43;13.70;;;;;;;5.57;nan;-23972.19;4990508;28;20251;-72
2022/03/08 08:45:51;;;;;;;21.90;14.47;;;;;;;5.87;nan;-23980.59;4991243;28;20339;-72
2022/03/08 08:48:17;;;;;;;22.90;14.60;;;;;;;5.21;nan;-23962.25;4991593;28;20164;-72
2022/03/08 08:50:43;;;;;;;25.23;14.90;;;;;;;5.72;nan;-23976.59;4991460;28;20192;-73
2022/03/08 08:53:08;;;;;;;24.67;15.97;;;;;;;5.33;nan;-23965.66;4991213;28;20185;-72
2022/03/08 08:55:36;;;;;;;25.50;15.33;;;;;;;4.96;nan;-23955.00;4991454;28;20173;-72
2022/03/08 08:58:03;;;;;;;25.63;15.93;;;;;;;5.08;nan;-23958.41;4989801;28;20557;-73
2022/03/08 09:00:28;;;;;;;25.33;16.10;;;;;;;5.15;nan;-23960.41;4991777;28;20187;-73
2022/03/08 09:02:54;;;;;;;22.40;14.60;;;;;;;4.86;nan;-23952.28;4989450;28;20169;-73
2022/03/08 09:05:19;;;;;;;20.23;12.97;;;;;;;5.17;nan;-23961.09;4991328;28;20204;-72
2022/03/08 09:07:44;;;;;;;17.43;11.20;;;;;;;4.81;nan;-23951.00;4991390;28;20532;-72
2022/03/08 09:10:10;;;;;;;18.53;12.13;;;;;;;5.16;nan;-23960.81;4990016;28;20196;-73
2022/03/08 09:12:35;;;;;;;17.60;11.33;;;;;;;4.82;nan;-23951.28;4991559;28;20507;-72
2022/03/08 09:15:02;;;;;;;17.87;11.80;;;;;;;5.01;nan;-23956.41;4991222;28;20260;-73
2022/03/08 09:17:28;;;;;;;17.83;11.50;;;;;;;5.29;nan;-23964.50;4994994;28;20169;-73
2022/03/08 09:19:53;;;;;;;18.10;11.17;;;;;;;5.32;nan;-23965.22;4995196;28;20279;-72
2022/03/08 09:22:19;;;;;;;15.80;10.90;;;;;;;5.24;nan;-23963.09;4995084;28;20208;-71
2022/03/08 09:24:44;;;;;;;16.37;10.90;;;;;;;4.75;nan;-23949.31;4993625;28;20208;-72
2022/03/08 09:27:09;;;;;;;14.47;9.97;;;;;;;5.01;nan;-23956.56;4995348;28;20173;-72
2022/03/08 09:29:35;;;;;;;13.57;9.87;;;;;;;4.96;nan;-23955.13;4993385;28;20606;-73
2022/03/08 09:32:00;;;;;;;14.90;10.10;;;;;;;5.16;nan;-23960.69;4994871;28;20632;-71
2022/03/08 09:34:26;;;;;;;14.70;10.60;;;;;;;4.98;nan;-23955.56;4995193;28;20636;-71
2022/03/08 09:36:51;;;;;;;13.90;9.63;;;;;;;5.36;nan;-23966.38;4994765;28;20173;-72
2022/03/08 09:39:17;;;;;;;15.53;9.63;;;;;;;5.64;nan;-23974.19;4995095;28;20281;-72
2022/03/08 09:41:43;;;;;;;14.47;9.50;;;;;;;5.38;nan;-23966.78;4994363;28;20307;-72
2022/03/08 09:44:13;;;;;;;15.47;10.53;;;;;;;5.58;nan;-23972.47;4992085;28;20224;-72
2022/03/08 09:46:40;;;;;;;15.63;10.50;;;;;;;5.41;nan;-23967.66;4988756;28;20246;-72
2022/03/08 09:49:06;;;;;;;16.13;10.47;;;;;;;5.23;nan;-23962.81;4994073;28;20181;-72
2022/03/08 09:51:32;;;;;;;17.07;11.53;;;;;;;5.29;nan;-23964.50;4993872;28;20498;-72
2022/03/08 09:53:57;;;;;;;17.63;11.63;;;;;;;5.42;nan;-23967.94;4989474;28;20637;-71
2022/03/08 09:56:23;;;;;;;18.63;11.73;;;;;;;5.63;nan;-23973.91;4974052;28;20285;-71
2022/03/08 09:58:48;;;;;;;20.33;12.10;;;;;;;5.76;nan;-23977.59;4974816;28;20676;-72
2022/03/08 10:01:14;;;;;;;17.23;11.60;;;;;;;5.54;nan;-23971.34;4974580;28;20170;-71
2022/03/08 10:03:43;;;;;;;19.07;11.93;;;;;;;6.13;nan;-23988.13;4975157;28;20166;-70
2022/03/08 10:06:10;;;;;;;16.17;10.83;;;;;;;5.77;nan;-23978.03;4975359;28;20201;-70
2022/03/08 10:08:36;;;;;;;15.33;10.53;;;;;;;5.38;nan;-23966.94;4975030;28;20181;-71
2022/03/08 10:11:07;;;;;;;17.07;11.27;;;;;;;6.12;nan;-23987.69;4975113;28;20181;-71
2022/03/08 10:13:41;;;;;;;16.67;11.33;;;;;;;5.44;nan;-23968.63;4974707;28;20173;-70
2022/03/08 10:16:13;;;;;;;17.43;11.97;;;;;;;5.84;nan;-23979.72;4974871;28;20169;-71
2022/03/08 10:18:45;;;;;;;15.50;10.90;;;;;;;5.62;nan;-23973.63;4975016;28;20170;-71
2022/03/08 10:21:27;;;;;;;16.73;11.13;;;;;;;5.74;nan;-23977.03;4974837;28;20173;-71
2022/03/08 10:23:53;;;;;;;21.53;13.00;;;;;;;5.51;nan;-23970.47;4974383;28;20665;-72
2022/03/08 10:26:19;;;;;;;21.27;13.50;;;;;;;5.58;nan;-23972.47;4974572;28;20247;-72
2022/03/08 10:28:46;;;;;;;21.67;14.17;;;;;;;5.32;nan;-23965.38;4974211;28;20185;-71
2022/03/08 10:31:14;;;;;;;21.67;13.53;;;;;;;5.40;nan;-23967.38;4974388;28;20169;-71
2022/03/08 10:33:41;;;;;;;22.23;13.40;;;;;;;5.23;nan;-23962.81;4973779;28;20177;-71
2022/03/08 10:36:18;;;;;;;22.47;13.90;;;;;;;5.77;nan;-23978.03;4973558;28;20711;-71
2022/03/08 10:39:07;;;;;;;23.97;14.57;;;;;;;6.02;nan;-23984.97;4973234;28;20188;-70
2022/03/08 10:41:37;;;;;;;26.03;14.97;;;;;;;6.36;nan;-23994.50;4971845;28;20324;-71
2022/03/08 10:44:03;;;;;;;27.50;14.73;;;;;;;6.43;nan;-23996.50;4973692;28;20553;-71
2022/03/08 10:46:28;;;;;;;22.87;14.07;;;;;;;6.27;nan;-23991.81;4973573;28;20187;-72
2022/03/08 10:48:54;;;;;;;23.87;14.47;;;;;;;6.43;nan;-23996.50;4974356;28;20173;-71
2022/03/08 10:51:20;;;;;;;27.43;15.03;;;;;;;6.62;nan;-24001.75;4973790;28;20178;-72
2022/03/08 10:53:46;;;;;;;22.33;13.83;;;;;;;6.26;nan;-23991.66;4974033;28;20174;-71
2022/03/08 10:56:19;;;;;;;20.83;13.27;;;;;;;6.39;nan;-23995.34;4971738;28;20185;-72
2022/03/08 10:58:50;;;;;;;23.17;14.43;;;;;;;6.54;nan;-23999.47;4973426;28;20186;-72
2022/03/08 11:01:16;;;;;;;20.43;12.93;;;;;;;6.63;nan;-24002.03;4989931;28;20185;-72
2022/03/08 11:03:54;;;;;;;21.60;13.70;;;;;;;6.60;nan;-24001.19;4992551;28;20181;-73
2022/03/08 11:06:19;;;;;;;22.73;13.43;;;;;;;5.40;nan;-23967.38;5024419;28;20199;-72
2022/03/08 11:08:46;;;;;;;23.30;13.47;;;;;;;5.87;nan;-23980.72;4992518;28;20177;-74
2022/03/08 11:11:11;;;;;;;24.70;13.43;;;;;;;6.72;nan;-24004.44;4992877;28;20169;-73
2022/03/08 11:13:37;;;;;;;22.63;13.43;;;;;;;6.80;nan;-24006.84;4991241;28;20239;-73
2022/03/08 11:16:03;;;;;;;23.07;13.23;;;;;;;6.41;nan;-23995.78;4992634;28;20256;-74
2022/03/08 11:18:30;;;;;;;25.03;14.73;;;;;;;6.43;nan;-23996.50;4991590;28;20173;-72
2022/03/08 11:20:58;;;;;;;22.97;14.43;;;;;;;6.70;nan;-24003.88;5024260;28;20256;-72
2022/03/08 11:23:24;;;;;;;21.53;13.20;;;;;;;6.55;nan;-23999.91;4992430;28;20177;-73
2022/03/08 11:25:50;;;;;;;19.83;12.13;;;;;;;6.14;nan;-23988.41;4991782;28;20216;-73
2022/03/08 11:28:18;;;;;;;18.27;12.33;;;;;;;7.03;nan;-24013.38;4991923;28;20183;-74
2022/03/08 11:30:47;;;;;;;19.83;12.50;;;;;;;7.23;nan;-24018.91;4992187;28;20234;-73
2022/03/08 11:33:35;;;;;;;20.70;12.90;;;;;;;6.86;nan;-24008.56;4991252;28;20192;-74